Modesto City County Airport

About
Name: Modesto City County Airport
Identifier:  MOD/KMOD
Operator:  City of Modesto
Public/Private:  Public
Local Time:  22. Sep 19:32 PDT
Description: Modesto City–County Airport is two miles southeast of Modesto in Stanislaus County, California.
Source: Wikipedia
Location
Runways
Identifier Length (m/ft) Surface
10L/28R 1,800/5,904 Asphalt
10R/28L 1,056/3,464 Asphalt
Statistics
Flights per Day:
1 flights
Distance: 102km (63mi)
Flights delayed:
90% (0 flights per day delayed)
Delay Average: 16 minutes
Current Weather
 29 C (Humidity: 26%)
  4kt (7km/h / 4mph) from 310°
  16km (10 mi.)
 
 METAR KMOD 230153Z 31004KT 10SM CLR 29/08 A2983 RMK AO2 SLP102 T02890083

Current Delays

Departures
N/A
Arrivals
N/A

Destinations

Top Destinations
Airport Flights
per week
Seats
per week
  Sacramento (MHR) 4 - 0 0
  Merced (MCE) 1 - 0 0
  San Luis Obispo (SBP) 0 - 0 0

Airlines & Planes

Top Airlines
Airline Flights
per Day
Seats
per Day
Redding Aero Enterprises 0 -
Gama Aviation 0 -
Top Plane Types
Model Flights Seats
Cessna C208 0.9/day - 0
Beech B300 Super King Air 350 0.0/day - 0